Time;durP1;ratioP1;P1;durP2;ratioP2;P2;SDS_P1;SDS_P2;PMS_P1;PMS_P2;Temp;Humidity;BMP_temperature;BMP_pressure;BME280_temperature;BME280_humidity;BME280_pressure;Samples;Min_cycle;Max_cycle;Signal;HPM_P1;HPM_P2
2022/08/04 00:00:17;;;;;;;10.25;6.10;;;24.50;68.70;;;;;;5052619;28;20177;-60
2022/08/04 00:03:15;;;;;;;15.25;6.60;;;24.40;68.70;;;;;;5052828;28;20189;-60
2022/08/04 00:05:56;;;;;;;12.32;6.55;;;24.40;68.90;;;;;;5052415;28;20173;-60
2022/08/04 00:08:36;;;;;;;14.07;7.63;;;24.30;68.80;;;;;;5052705;28;20188;-60
2022/08/04 00:11:02;;;;;;;21.50;10.07;;;24.30;69.10;;;;;;5052650;28;20276;-61
2022/08/04 00:13:33;;;;;;;29.83;14.43;;;24.30;69.10;;;;;;5053329;28;20166;-60
2022/08/04 00:16:07;;;;;;;49.78;23.63;;;24.30;69.30;;;;;;5052856;28;20180;-61
2022/08/04 00:18:44;;;;;;;37.53;17.20;;;24.30;69.30;;;;;;5052980;28;20955;-60
2022/08/04 00:21:14;;;;;;;17.33;8.70;;;24.20;69.30;;;;;;5052643;28;20282;-61
2022/08/04 00:23:43;;;;;;;12.15;5.43;;;24.10;69.20;;;;;;5052567;28;20221;-60
2022/08/04 00:26:08;;;;;;;8.25;3.10;;;24.10;69.40;;;;;;5052209;28;20196;-60
2022/08/04 00:28:36;;;;;;;5.53;3.03;;;24.00;69.50;;;;;;5052443;28;21674;-60
2022/08/04 00:31:04;;;;;;;5.30;3.35;;;23.90;69.70;;;;;;5051725;28;20182;-60
2022/08/04 00:33:30;;;;;;;6.65;3.53;;;23.90;70.00;;;;;;5052419;28;20200;-60
2022/08/04 00:35:58;;;;;;;20.27;8.98;;;23.90;70.20;;;;;;5051473;28;20735;-61
2022/08/04 00:38:24;;;;;;;32.92;14.30;;;23.90;70.10;;;;;;5052598;28;20250;-60
2022/08/04 00:41:07;;;;;;;52.88;22.38;;;23.90;70.20;;;;;;5052042;28;20205;-60
2022/08/04 00:43:42;;;;;;;65.80;28.88;;;24.00;70.60;;;;;;5050665;28;20201;-60
2022/08/04 00:46:38;;;;;;;77.22;38.03;;;24.00;70.60;;;;;;5051011;28;20244;-60
2022/08/04 00:49:12;;;;;;;85.75;48.85;;;24.00;70.00;;;;;;5037830;28;20178;-60
2022/08/04 00:51:54;;;;;;;47.42;25.40;;;24.00;70.20;;;;;;5052436;28;20196;-60
2022/08/04 00:54:31;;;;;;;27.27;16.35;;;24.00;70.40;;;;;;5052015;28;20169;-60
2022/08/04 00:57:23;;;;;;;18.05;10.57;;;24.00;69.80;;;;;;5051582;28;20183;-61
2022/08/04 01:00:04;;;;;;;8.40;4.50;;;24.10;69.10;;;;;;5051098;28;20200;-60
2022/08/04 01:03:09;;;;;;;70.22;29.02;;;24.20;68.90;;;;;;5051956;28;20851;-60
2022/08/04 01:05:50;;;;;;;28.85;13.50;;;24.20;68.70;;;;;;5050405;28;20532;-60
2022/08/04 01:08:40;;;;;;;17.67;7.40;;;24.20;68.70;;;;;;5051688;28;20185;-60
2022/08/04 01:11:46;;;;;;;10.25;4.65;;;24.10;68.60;;;;;;5051253;28;20184;-60
2022/08/04 01:14:47;;;;;;;7.30;3.50;;;24.10;68.60;;;;;;5051143;28;20181;-60
2022/08/04 01:17:39;;;;;;;7.63;4.28;;;24.10;68.60;;;;;;5051267;28;20178;-60
2022/08/04 01:20:08;;;;;;;9.55;4.65;;;24.10;69.20;;;;;;5051108;28;20199;-60
2022/08/04 01:22:33;;;;;;;13.32;6.47;;;24.10;69.00;;;;;;5051066;28;20217;-60
2022/08/04 01:25:53;;;;;;;11.85;6.00;;;24.20;69.50;;;;;;5050202;28;20188;-61
2022/08/04 01:28:51;;;;;;;13.00;5.57;;;24.20;69.90;;;;;;5016769;28;20254;-60
2022/08/04 01:31:58;;;;;;;9.05;4.90;;;24.10;70.00;;;;;;5050308;28;20201;-60
2022/08/04 01:34:28;;;;;;;10.95;5.07;;;24.00;70.50;;;;;;5050621;28;20181;-60
2022/08/04 01:37:07;;;;;;;10.43;5.47;;;24.00;70.70;;;;;;5050436;28;20177;-61
2022/08/04 01:39:40;;;;;;;12.25;5.90;;;23.90;70.80;;;;;;5036412;28;20591;-60
2022/08/04 01:42:06;;;;;;;13.45;5.97;;;23.90;70.90;;;;;;5050704;28;20267;-60
2022/08/04 01:44:34;;;;;;;6.80;4.10;;;23.90;71.20;;;;;;5050490;28;20190;-60
2022/08/04 01:47:00;;;;;;;5.95;3.83;;;23.80;70.90;;;;;;5049899;28;20268;-60
2022/08/04 01:49:30;;;;;;;6.82;2.92;;;23.80;69.90;;;;;;5048901;28;20182;-60
2022/08/04 01:51:57;;;;;;;4.53;2.50;;;23.80;69.80;;;;;;5050466;28;20186;-61
2022/08/04 01:54:24;;;;;;;2.70;1.70;;;23.80;69.60;;;;;;5050594;28;20261;-60
2022/08/04 01:56:50;;;;;;;1.77;1.63;;;23.80;69.20;;;;;;5050993;28;20204;-60
2022/08/04 01:59:18;;;;;;;2.20;1.65;;;23.80;69.10;;;;;;5050039;28;20181;-60
2022/08/04 02:01:43;;;;;;;2.70;1.80;;;23.70;69.10;;;;;;5050377;28;20668;-60
2022/08/04 02:04:18;;;;;;;1.60;1.50;;;23.60;69.20;;;;;;5049900;28;20183;-60
2022/08/04 02:07:29;;;;;;;1.70;1.60;;;23.60;69.40;;;;;;5050857;28;20184;-60
2022/08/04 02:10:02;;;;;;;1.67;1.50;;;23.50;69.30;;;;;;5025044;28;20999;-60
2022/08/04 02:12:46;;;;;;;2.00;1.55;;;23.50;69.90;;;;;;5043733;28;20185;-60
2022/08/04 02:15:26;;;;;;;2.10;1.63;;;23.50;69.80;;;;;;5049914;28;20185;-60
2022/08/04 02:18:18;;;;;;;1.58;1.48;;;23.40;69.40;;;;;;5049395;28;20264;-60
2022/08/04 02:20:47;;;;;;;1.70;1.60;;;23.40;69.80;;;;;;5049934;28;20216;-60
2022/08/04 02:23:36;;;;;;;34.80;25.37;;;23.50;69.80;;;;;;5014063;28;1032200;-60
2022/08/04 02:26:19;;;;;;;56.33;39.33;;;23.50;70.10;;;;;;5050278;28;20419;-60
2022/08/04 02:28:56;;;;;;;19.15;13.85;;;23.50;69.70;;;;;;5050777;28;20186;-60
2022/08/04 02:31:36;;;;;;;21.05;15.02;;;23.60;69.70;;;;;;5050699;28;20607;-60
2022/08/04 02:34:13;;;;;;;23.88;13.45;;;23.60;69.80;;;;;;5050129;28;20177;-60
2022/08/04 02:36:40;;;;;;;25.48;12.05;;;23.60;69.90;;;;;;5050354;28;20181;-60
2022/08/04 02:39:09;;;;;;;37.92;17.58;;;23.60;69.70;;;;;;5050491;28;20181;-60
2022/08/04 02:41:36;;;;;;;34.60;17.35;;;23.60;69.70;;;;;;5049898;28;20221;-60
2022/08/04 02:44:04;;;;;;;23.63;11.57;;;23.60;70.10;;;;;;5046866;28;20182;-60
2022/08/04 02:46:30;;;;;;;9.68;5.53;;;23.60;69.50;;;;;;5049757;28;20181;-60
2022/08/04 02:48:57;;;;;;;5.45;3.17;;;23.60;69.30;;;;;;5049733;28;20181;-61
2022/08/04 02:51:28;;;;;;;2.53;2.10;;;23.60;69.40;;;;;;5050650;28;20186;-60
2022/08/04 02:53:56;;;;;;;2.47;2.28;;;23.50;69.50;;;;;;5050867;28;20656;-60
2022/08/04 02:56:24;;;;;;;5.95;3.75;;;23.50;69.60;;;;;;5048681;28;20189;-60
2022/08/04 02:58:58;;;;;;;4.25;2.08;;;23.50;69.60;;;;;;5049685;28;20166;-60
2022/08/04 03:01:23;;;;;;;3.97;2.53;;;23.50;69.90;;;;;;5050036;28;20705;-60
2022/08/04 03:04:07;;;;;;;2.80;2.30;;;23.50;70.10;;;;;;5050396;28;20182;-60
2022/08/04 03:07:06;;;;;;;5.82;2.22;;;23.50;70.10;;;;;;5050453;28;20182;-60
2022/08/04 03:09:53;;;;;;;20.70;12.75;;;23.40;70.40;;;;;;5050318;28;20219;-60
2022/08/04 03:12:37;;;;;;;21.23;13.85;;;23.40;70.80;;;;;;5050146;28;20177;-60
2022/08/04 03:15:24;;;;;;;44.13;20.98;;;23.30;71.00;;;;;;5050680;28;20201;-60
2022/08/04 03:18:09;;;;;;;57.42;23.60;;;23.30;71.10;;;;;;5049315;28;20255;-59
2022/08/04 03:21:02;;;;;;;54.60;23.60;;;23.30;71.40;;;;;;5050229;28;20181;-59
2022/08/04 03:24:16;;;;;;;39.47;16.90;;;23.20;71.40;;;;;;5053503;28;20300;-60
2022/08/04 03:27:08;;;;;;;21.10;9.23;;;23.20;71.50;;;;;;5034643;28;20228;-59
2022/08/04 03:30:15;;;;;;;19.65;9.63;;;23.10;71.60;;;;;;5053796;28;20192;-60
2022/08/04 03:32:59;;;;;;;26.20;11.85;;;23.00;71.90;;;;;;5053985;28;20186;-60
2022/08/04 03:35:52;;;;;;;9.55;5.10;;;23.00;72.30;;;;;;5053797;28;20191;-60
2022/08/04 03:38:23;;;;;;;9.75;5.13;;;22.90;72.30;;;;;;5034381;28;20185;-60
2022/08/04 03:41:14;;;;;;;10.77;5.13;;;22.80;72.50;;;;;;5050947;28;20209;-60
2022/08/04 03:44:12;;;;;;;5.85;3.03;;;22.80;72.90;;;;;;5054288;28;20181;-60
2022/08/04 03:46:50;;;;;;;4.55;2.95;;;22.80;73.00;;;;;;5041926;28;20661;-60
2022/08/04 03:49:29;;;;;;;5.85;3.72;;;22.80;73.00;;;;;;5053341;28;20181;-60
2022/08/04 03:55:29;;;;;;;24.17;10.60;;;22.90;73.10;;;;;;5052783;28;20184;-60
2022/08/04 03:58:27;;;;;;;37.00;17.23;;;22.90;73.10;;;;;;5033744;28;20182;-61
2022/08/04 04:01:12;;;;;;;65.75;27.92;;;22.90;73.00;;;;;;5047848;28;20655;-60
2022/08/04 04:03:38;;;;;;;19.65;8.88;;;23.00;72.60;;;;;;5052880;28;20181;-60
2022/08/04 04:06:25;;;;;;;11.80;5.90;;;23.00;72.10;;;;;;5053530;28;20173;-61
2022/08/04 04:09:16;;;;;;;46.95;18.20;;;22.90;72.00;;;;;;5053084;28;20185;-60
2022/08/04 04:12:00;;;;;;;26.50;11.27;;;22.90;72.30;;;;;;5053733;28;20185;-60
2022/08/04 04:14:42;;;;;;;20.92;9.65;;;22.90;72.30;;;;;;5052509;28;20251;-61
2022/08/04 04:17:22;;;;;;;15.73;6.80;;;22.90;72.70;;;;;;5052805;28;20701;-60
2022/08/04 04:20:09;;;;;;;12.32;6.05;;;22.90;72.60;;;;;;5052827;28;20185;-61
2022/08/04 04:22:56;;;;;;;12.38;5.30;;;23.00;72.60;;;;;;5051563;28;20240;-61
2022/08/04 04:25:30;;;;;;;34.55;15.25;;;23.00;72.50;;;;;;5033420;28;20217;-61
2022/08/04 04:27:58;;;;;;;38.55;16.65;;;23.00;72.50;;;;;;5047601;28;20182;-62
2022/08/04 04:30:58;;;;;;;202.10;98.30;;;23.10;72.40;;;;;;5052233;28;20200;-61
2022/08/04 04:33:57;;;;;;;23.75;12.18;;;23.10;72.70;;;;;;5048594;28;20189;-61
2022/08/04 04:36:48;;;;;;;63.38;33.15;;;23.20;71.90;;;;;;5052987;28;20174;-64
2022/08/04 04:39:39;;;;;;;125.03;70.43;;;23.20;72.30;;;;;;5050200;28;20266;-61
2022/08/04 04:42:52;;;;;;;90.18;55.78;;;23.20;72.20;;;;;;5052610;28;20271;-62
2022/08/04 04:45:35;;;;;;;113.00;64.50;;;23.30;72.70;;;;;;5051656;28;20185;-59
2022/08/04 04:48:26;;;;;;;25.73;16.15;;;23.30;72.50;;;;;;5045732;28;20290;-60
2022/08/04 04:51:12;;;;;;;4.20;2.90;;;23.30;72.30;;;;;;5051969;28;20591;-62
2022/08/04 04:54:04;;;;;;;3.75;2.38;;;23.40;72.60;;;;;;5052495;28;20177;-63
2022/08/04 04:56:52;;;;;;;3.15;2.25;;;23.40;72.70;;;;;;5052904;28;20192;-63
2022/08/04 04:59:26;;;;;;;2.42;2.05;;;23.60;72.60;;;;;;5052248;28;20188;-63
2022/08/04 05:02:25;;;;;;;4.13;2.60;;;23.80;71.80;;;;;;5052719;28;20706;-63
2022/08/04 05:05:01;;;;;;;4.43;1.90;;;24.10;71.50;;;;;;5052410;28;20243;-62
2022/08/04 05:07:37;;;;;;;4.40;1.98;;;24.50;70.50;;;;;;5052602;28;20177;-62
2022/08/04 05:10:40;;;;;;;3.00;1.70;;;24.90;70.20;;;;;;5052302;28;20189;-62
2022/08/04 05:13:29;;;;;;;1.70;1.60;;;25.30;69.20;;;;;;5052479;28;20180;-62
2022/08/04 05:16:00;;;;;;;1.80;1.70;;;25.70;68.20;;;;;;5048636;28;20177;-62
2022/08/04 05:18:29;;;;;;;2.85;1.50;;;26.10;66.70;;;;;;5037388;28;20217;-63
2022/08/04 05:21:07;;;;;;;2.15;1.80;;;26.60;65.70;;;;;;5043386;28;20209;-63
2022/08/04 05:23:39;;;;;;;2.80;1.77;;;26.90;64.60;;;;;;5050692;28;20695;-63
2022/08/04 05:26:12;;;;;;;2.33;1.88;;;27.40;63.70;;;;;;5051945;28;20208;-63
2022/08/04 05:28:56;;;;;;;4.50;1.65;;;27.80;62.80;;;;;;5051952;28;20185;-63
2022/08/04 05:31:27;;;;;;;1.70;1.60;;;28.20;61.80;;;;;;5051939;28;20193;-63
2022/08/04 05:33:56;;;;;;;3.40;1.60;;;28.60;60.70;;;;;;5051354;28;20205;-63
2022/08/04 05:36:26;;;;;;;2.35;1.85;;;29.00;59.80;;;;;;5051883;28;20659;-63
2022/08/04 05:38:58;;;;;;;4.13;1.90;;;29.30;59.10;;;;;;5051793;28;20188;-64
2022/08/04 05:41:25;;;;;;;1.98;1.60;;;29.70;58.40;;;;;;5051884;28;20814;-64
2022/08/04 05:43:51;;;;;;;1.70;1.60;;;30.10;57.70;;;;;;5051438;28;20657;-63
2022/08/04 05:46:18;;;;;;;3.40;1.60;;;30.40;57.00;;;;;;5051644;28;20212;-64
2022/08/04 05:48:45;;;;;;;4.47;1.70;;;30.70;56.60;;;;;;5051702;28;20189;-63
2022/08/04 05:51:13;;;;;;;3.42;1.77;;;31.00;55.90;;;;;;5051702;28;20173;-63
2022/08/04 05:53:43;;;;;;;3.75;1.70;;;31.40;55.60;;;;;;5051401;28;20231;-63
2022/08/04 05:56:10;;;;;;;3.17;1.80;;;31.70;55.00;;;;;;5051790;28;20173;-63
2022/08/04 05:58:37;;;;;;;3.40;1.95;;;32.00;54.40;;;;;;5051477;28;20184;-63
2022/08/04 06:01:04;;;;;;;1.80;1.70;;;32.40;53.70;;;;;;5050401;28;20224;-62
2022/08/04 06:03:33;;;;;;;2.50;1.45;;;32.80;53.10;;;;;;5051405;28;20181;-62
2022/08/04 06:06:00;;;;;;;3.45;1.80;;;33.20;52.10;;;;;;5051583;28;20228;-62
2022/08/04 06:08:25;;;;;;;2.92;1.55;;;33.70;51.30;;;;;;5051420;28;20177;-62
2022/08/04 06:10:54;;;;;;;2.25;1.60;;;34.20;50.40;;;;;;5051580;28;20192;-62
2022/08/04 06:13:27;;;;;;;1.98;1.70;;;34.70;49.60;;;;;;5051310;28;20181;-62
2022/08/04 06:15:55;;;;;;;4.32;2.10;;;35.20;48.60;;;;;;5051655;28;20189;-62
2022/08/04 06:18:21;;;;;;;2.35;2.15;;;35.50;48.00;;;;;;5051413;28;20191;-63
2022/08/04 06:20:48;;;;;;;5.80;1.70;;;35.80;47.40;;;;;;5051392;28;20671;-63
2022/08/04 06:23:15;;;;;;;2.15;1.80;;;36.30;47.00;;;;;;5051264;28;20582;-63
2022/08/04 06:25:46;;;;;;;2.20;1.88;;;36.60;46.50;;;;;;5051263;28;20255;-63
2022/08/04 06:28:13;;;;;;;3.28;1.63;;;36.80;46.20;;;;;;5051351;28;20165;-63
2022/08/04 06:30:39;;;;;;;4.10;1.60;;;37.00;45.90;;;;;;5051176;28;20268;-62
2022/08/04 06:33:23;;;;;;;2.83;1.75;;;37.30;45.60;;;;;;5051050;28;20187;-62
2022/08/04 06:35:54;;;;;;;4.97;1.77;;;37.70;44.90;;;;;;5051347;28;20208;-62
2022/08/04 06:38:23;;;;;;;4.15;1.92;;;38.00;43.80;;;;;;5051193;28;20586;-63
2022/08/04 06:40:48;;;;;;;6.50;1.70;;;38.30;43.70;;;;;;5050887;28;20192;-63
2022/08/04 06:43:15;;;;;;;3.42;1.52;;;38.50;43.20;;;;;;5047986;28;20275;-63
2022/08/04 06:45:41;;;;;;;2.35;1.90;;;38.80;42.50;;;;;;5031474;28;20232;-63
2022/08/04 06:48:10;;;;;;;2.75;1.60;;;39.10;41.90;;;;;;5043653;28;20192;-63
2022/08/04 06:50:36;;;;;;;2.50;1.58;;;39.40;41.30;;;;;;5051233;28;20811;-63
2022/08/04 06:53:02;;;;;;;1.80;1.70;;;39.80;40.80;;;;;;5050909;28;20632;-63
2022/08/04 06:55:29;;;;;;;3.17;1.73;;;40.10;40.50;;;;;;5050596;28;20652;-63
2022/08/04 06:57:56;;;;;;;2.95;1.70;;;40.40;39.70;;;;;;5053886;28;20181;-64
2022/08/04 07:00:23;;;;;;;4.13;1.42;;;40.60;39.70;;;;;;5055059;28;20252;-64
2022/08/04 07:02:52;;;;;;;3.92;1.67;;;40.70;39.70;;;;;;5054349;28;20243;-63
2022/08/04 07:05:20;;;;;;;3.65;1.75;;;40.80;39.30;;;;;;5054437;28;20177;-63
2022/08/04 07:07:46;;;;;;;2.42;1.70;;;41.00;39.30;;;;;;5054440;28;20276;-63
2022/08/04 07:10:13;;;;;;;3.55;1.42;;;41.40;38.50;;;;;;5054092;28;20683;-65
2022/08/04 07:12:39;;;;;;;1.80;1.70;;;41.70;38.10;;;;;;5054526;28;20208;-64
2022/08/04 07:15:06;;;;;;;2.72;1.70;;;42.00;37.80;;;;;;5054349;28;20239;-65
2022/08/04 07:17:34;;;;;;;1.70;1.50;;;42.20;37.60;;;;;;5051281;28;20516;-66
2022/08/04 07:20:01;;;;;;;3.33;1.77;;;42.40;37.30;;;;;;5054186;28;20180;-66
2022/08/04 07:22:27;;;;;;;2.45;2.00;;;42.50;36.80;;;;;;5054305;28;20223;-66
2022/08/04 07:24:58;;;;;;;5.45;1.90;;;42.60;36.70;;;;;;5054328;28;20188;-65
2022/08/04 07:27:25;;;;;;;3.72;1.75;;;42.70;36.50;;;;;;5054498;28;20181;-66
2022/08/04 07:29:50;;;;;;;3.80;1.70;;;42.70;36.10;;;;;;5054329;28;20538;-64
2022/08/04 07:32:19;;;;;;;3.42;1.63;;;42.80;36.30;;;;;;5054043;28;20188;-65
2022/08/04 07:34:47;;;;;;;5.57;1.83;;;43.00;36.30;;;;;;5054492;28;20264;-65
2022/08/04 07:37:13;;;;;;;6.43;4.20;;;43.20;36.40;;;;;;5052689;28;20227;-63
2022/08/04 07:39:39;;;;;;;6.72;3.50;;;43.50;36.10;;;;;;5053981;28;20216;-65
2022/08/04 07:42:05;;;;;;;8.77;2.10;;;43.60;35.80;;;;;;5053989;28;20220;-64
2022/08/04 07:44:32;;;;;;;4.70;1.80;;;43.70;35.40;;;;;;5045334;28;20180;-65
2022/08/04 07:46:58;;;;;;;9.68;3.83;;;43.80;35.80;;;;;;5053985;28;20172;-65
2022/08/04 07:49:25;;;;;;;17.02;9.00;;;43.90;35.30;;;;;;5054138;28;20242;-63
2022/08/04 07:51:52;;;;;;;3.58;2.80;;;44.10;35.00;;;;;;5053367;28;20193;-64
2022/08/04 07:54:18;;;;;;;2.90;1.80;;;44.30;34.80;;;;;;5054053;28;20289;-65
2022/08/04 07:56:44;;;;;;;12.02;5.35;;;44.00;34.20;;;;;;5054238;28;20176;-65
2022/08/04 07:59:10;;;;;;;3.70;2.72;;;43.70;34.60;;;;;;5056618;28;20512;-62
2022/08/04 08:01:37;;;;;;;5.15;1.90;;;43.90;34.70;;;;;;5054034;28;20247;-62
2022/08/04 08:04:06;;;;;;;2.63;1.65;;;44.10;34.40;;;;;;5053775;28;20181;-63
2022/08/04 08:06:34;;;;;;;4.15;1.70;;;44.20;34.40;;;;;;5053831;28;20263;-64
2022/08/04 08:09:21;;;;;;;3.80;1.73;;;44.30;34.20;;;;;;5052785;28;20192;-62
2022/08/04 08:11:49;;;;;;;4.15;2.10;;;44.20;33.50;;;;;;5054619;28;20827;-65
2022/08/04 08:14:16;;;;;;;4.30;1.80;;;44.10;34.50;;;;;;5053058;28;20172;-65
2022/08/04 08:16:42;;;;;;;3.63;1.85;;;43.80;34.30;;;;;;5053600;28;20246;-65
2022/08/04 08:19:08;;;;;;;2.42;1.80;;;43.40;34.70;;;;;;5053385;28;20185;-64
2022/08/04 08:21:34;;;;;;;2.55;1.73;;;43.10;35.10;;;;;;5053164;28;20291;-64
2022/08/04 08:24:00;;;;;;;2.17;1.80;;;42.90;35.00;;;;;;5052900;28;20244;-63
2022/08/04 08:26:26;;;;;;;4.35;1.80;;;42.70;35.10;;;;;;5053581;28;20211;-64
2022/08/04 08:28:52;;;;;;;1.67;1.58;;;42.80;35.00;;;;;;5053130;28;20180;-63
2022/08/04 08:31:18;;;;;;;3.28;1.63;;;43.10;35.10;;;;;;5053197;28;20177;-63
2022/08/04 08:33:45;;;;;;;2.17;1.80;;;43.30;34.00;;;;;;5053103;28;20283;-63
2022/08/04 08:36:13;;;;;;;2.13;1.70;;;43.40;34.10;;;;;;5052714;28;20185;-63
2022/08/04 08:38:52;;;;;;;3.63;1.77;;;43.60;34.90;;;;;;5052822;28;20652;-64
2022/08/04 08:42:03;;;;;;;2.22;1.88;;;43.50;34.00;;;;;;5044458;28;20231;-64
2022/08/04 08:44:59;;;;;;;2.90;1.70;;;43.20;35.00;;;;;;5032576;28;20284;-63
2022/08/04 08:47:57;;;;;;;3.05;2.05;;;43.20;34.50;;;;;;5033210;28;20186;-64
2022/08/04 08:50:41;;;;;;;2.38;1.60;;;43.30;34.10;;;;;;5034384;28;20185;-64
2022/08/04 08:53:29;;;;;;;1.67;1.58;;;43.50;34.30;;;;;;5052819;28;20172;-63
2022/08/04 08:56:06;;;;;;;6.95;1.70;;;43.50;34.30;;;;;;5052728;28;20192;-64
2022/08/04 08:58:41;;;;;;;2.42;1.67;;;43.40;34.10;;;;;;5052843;28;20207;-64
2022/08/04 09:01:16;;;;;;;4.10;1.67;;;43.00;34.80;;;;;;5052796;28;20663;-64
2022/08/04 09:04:00;;;;;;;2.40;1.70;;;42.40;35.30;;;;;;5052846;28;20191;-64
2022/08/04 09:06:41;;;;;;;4.47;1.70;;;42.00;35.60;;;;;;5052446;28;20169;-64
2022/08/04 09:09:29;;;;;;;1.90;1.80;;;42.10;36.40;;;;;;5052448;28;20269;-64
2022/08/04 09:12:05;;;;;;;2.90;1.75;;;42.50;35.30;;;;;;5052129;28;20183;-63
2022/08/04 09:14:44;;;;;;;2.97;1.50;;;42.80;34.60;;;;;;5041492;28;20699;-64
2022/08/04 09:17:19;;;;;;;5.22;2.10;;;42.80;35.70;;;;;;5058547;28;20172;-64
2022/08/04 09:19:55;;;;;;;2.45;1.80;;;42.80;35.30;;;;;;5052052;28;20168;-64
2022/08/04 09:22:40;;;;;;;2.08;1.88;;;43.00;34.10;;;;;;5052152;28;20219;-65
2022/08/04 09:25:24;;;;;;;3.15;1.50;;;43.00;35.30;;;;;;5052122;28;20185;-64
2022/08/04 09:27:55;;;;;;;2.03;1.85;;;42.70;35.50;;;;;;5051945;28;20231;-64
2022/08/04 09:31:04;;;;;;;3.00;1.80;;;42.60;35.10;;;;;;5051898;28;20181;-65
2022/08/04 09:33:36;;;;;;;3.35;2.10;;;42.50;35.10;;;;;;5051157;28;20245;-64
2022/08/04 09:36:25;;;;;;;2.67;1.80;;;42.40;35.80;;;;;;5052170;28;20169;-65
2022/08/04 09:39:08;;;;;;;1.70;1.60;;;42.60;36.00;;;;;;5051728;28;20267;-64
2022/08/04 09:42:12;;;;;;;2.60;1.80;;;42.80;35.00;;;;;;5052119;28;20266;-65
2022/08/04 09:45:03;;;;;;;2.00;1.85;;;43.00;35.20;;;;;;5050526;28;20237;-65
2022/08/04 09:47:38;;;;;;;1.77;1.65;;;43.10;33.90;;;;;;5051761;28;20216;-65
2022/08/04 09:50:13;;;;;;;2.45;1.50;;;42.90;33.30;;;;;;5051347;28;20211;-64
2022/08/04 09:52:53;;;;;;;2.10;2.00;;;42.70;33.90;;;;;;5050460;28;20262;-64
2022/08/04 09:55:45;;;;;;;1.70;1.60;;;42.50;34.20;;;;;;5051162;28;20589;-65
2022/08/04 09:58:21;;;;;;;1.80;1.70;;;42.60;34.30;;;;;;5031646;28;20185;-65
2022/08/04 10:00:51;;;;;;;1.73;1.63;;;42.80;34.50;;;;;;5051255;28;20191;-65
2022/08/04 10:03:19;;;;;;;1.90;1.80;;;43.00;33.80;;;;;;5051060;28;20192;-64
2022/08/04 10:06:13;;;;;;;2.38;1.50;;;43.20;34.50;;;;;;5061010;28;20181;-65
2022/08/04 10:09:11;;;;;;;1.80;1.70;;;43.40;34.80;;;;;;5051655;28;20180;-66
2022/08/04 10:11:43;;;;;;;2.33;1.70;;;43.70;33.60;;;;;;5065451;28;20172;-65
2022/08/04 10:14:40;;;;;;;2.38;1.83;;;43.60;34.10;;;;;;5059291;28;20697;-64
2022/08/04 10:17:42;;;;;;;1.95;1.80;;;43.50;33.80;;;;;;5050825;28;20270;-65
2022/08/04 10:20:21;;;;;;;1.80;1.70;;;43.20;33.70;;;;;;5049205;28;20200;-62
2022/08/04 10:23:09;;;;;;;4.40;1.65;;;42.80;34.70;;;;;;5051376;28;20236;-63
2022/08/04 10:26:07;;;;;;;3.03;1.65;;;42.70;34.10;;;;;;5051390;28;20180;-63
2022/08/04 10:28:45;;;;;;;2.80;1.75;;;42.60;33.60;;;;;;5051222;28;20234;-65
2022/08/04 10:31:18;;;;;;;2.35;1.70;;;42.50;33.90;;;;;;5059204;28;20221;-63
2022/08/04 10:33:50;;;;;;;2.25;1.80;;;42.60;33.30;;;;;;5058884;28;20208;-63
2022/08/04 10:36:18;;;;;;;4.50;1.83;;;42.50;34.30;;;;;;5058739;28;20251;-64
2022/08/04 10:38:55;;;;;;;4.47;2.05;;;42.10;34.30;;;;;;5061105;28;20214;-63
2022/08/04 10:41:34;;;;;;;1.90;1.80;;;42.20;34.90;;;;;;5055158;28;20211;-62
2022/08/04 10:44:33;;;;;;;2.97;2.22;;;42.20;34.90;;;;;;5050657;28;20601;-62
2022/08/04 10:47:03;;;;;;;1.83;1.73;;;42.40;35.20;;;;;;5054896;28;20184;-64
2022/08/04 10:49:34;;;;;;;3.90;2.10;;;42.60;34.10;;;;;;5054791;28;20254;-64
2022/08/04 10:52:15;;;;;;;1.80;1.70;;;42.70;34.50;;;;;;5054722;28;20532;-65
2022/08/04 10:55:04;;;;;;;2.05;1.85;;;42.40;34.30;;;;;;5053336;28;20175;-65
2022/08/04 10:57:48;;;;;;;2.10;2.00;;;42.20;34.50;;;;;;5053728;28;20223;-65
2022/08/04 11:00:20;;;;;;;1.90;1.80;;;42.10;34.30;;;;;;5054170;28;20266;-65
2022/08/04 11:03:08;;;;;;;2.00;1.85;;;42.40;33.50;;;;;;5054534;28;20251;-65
2022/08/04 11:05:51;;;;;;;3.00;1.90;;;42.60;33.00;;;;;;5052490;28;20595;-68
2022/08/04 11:08:27;;;;;;;2.25;1.90;;;42.70;33.20;;;;;;5052309;28;20652;-65
2022/08/04 11:11:05;;;;;;;2.00;1.90;;;42.90;32.90;;;;;;5053477;28;20184;-62
2022/08/04 11:13:45;;;;;;;1.90;1.80;;;43.00;33.00;;;;;;5054276;28;20184;-64
2022/08/04 11:16:26;;;;;;;1.83;1.73;;;43.00;33.30;;;;;;5053874;28;20180;-63
2022/08/04 11:19:05;;;;;;;2.25;1.95;;;43.00;33.10;;;;;;5052896;28;20636;-64
2022/08/04 11:21:34;;;;;;;4.82;2.05;;;42.90;32.70;;;;;;5054247;28;20223;-66
2022/08/04 11:24:12;;;;;;;2.03;1.92;;;42.70;33.70;;;;;;5053987;28;20216;-66
2022/08/04 11:26:57;;;;;;;2.05;1.90;;;42.60;33.80;;;;;;5054295;28;20614;-66
2022/08/04 11:29:28;;;;;;;2.17;2.00;;;42.70;34.00;;;;;;5054256;28;20176;-66
2022/08/04 11:31:58;;;;;;;1.83;1.73;;;42.70;33.50;;;;;;5054155;28;20184;-66
2022/08/04 11:34:26;;;;;;;2.22;2.03;;;42.80;33.10;;;;;;5053850;28;20215;-66
2022/08/04 11:37:24;;;;;;;2.83;1.95;;;42.80;33.10;;;;;;5054279;28;20184;-65
2022/08/04 11:39:59;;;;;;;1.70;1.60;;;42.90;32.90;;;;;;5042108;28;20201;-66
2022/08/04 11:42:41;;;;;;;3.22;1.90;;;42.50;33.50;;;;;;5053678;28;20251;-65
2022/08/04 11:45:15;;;;;;;2.55;1.92;;;42.40;33.20;;;;;;5036927;28;20212;-66
2022/08/04 11:48:00;;;;;;;2.20;1.95;;;42.10;33.70;;;;;;5034556;28;20584;-66
2022/08/04 11:50:28;;;;;;;2.47;1.80;;;42.10;33.40;;;;;;5036042;28;20201;-66
2022/08/04 11:52:56;;;;;;;2.00;1.90;;;41.90;33.30;;;;;;5054113;28;20303;-65
2022/08/04 11:55:25;;;;;;;3.67;1.77;;;41.80;33.40;;;;;;5054049;28;20591;-66
2022/08/04 11:57:51;;;;;;;1.90;1.80;;;41.70;33.80;;;;;;5054006;28;20208;-66
2022/08/04 12:00:18;;;;;;;2.20;1.88;;;41.70;33.80;;;;;;5054040;28;20215;-66
2022/08/04 12:03:11;;;;;;;2.92;2.10;;;41.70;34.30;;;;;;5054020;28;20220;-65
2022/08/04 12:05:53;;;;;;;3.40;2.15;;;41.60;34.20;;;;;;5053858;28;20636;-66
2022/08/04 12:08:34;;;;;;;1.77;1.67;;;41.60;34.30;;;;;;5053996;28;20267;-66
2022/08/04 12:11:03;;;;;;;1.50;1.40;;;41.70;32.90;;;;;;5053791;28;20183;-66
2022/08/04 12:14:08;;;;;;;1.50;1.35;;;41.80;32.70;;;;;;5053843;28;20785;-65
2022/08/04 12:17:00;;;;;;;2.33;1.80;;;41.60;32.20;;;;;;5053665;28;20187;-66
2022/08/04 12:19:57;;;;;;;1.83;1.73;;;41.40;32.90;;;;;;5033567;28;20232;-65
2022/08/04 12:22:24;;;;;;;5.25;1.88;;;41.30;33.40;;;;;;5033115;28;20630;-66
2022/08/04 12:25:11;;;;;;;1.88;1.77;;;41.30;32.90;;;;;;5033682;28;20178;-65
2022/08/04 12:27:48;;;;;;;2.92;1.45;;;41.40;32.90;;;;;;5033723;28;20185;-66
2022/08/04 12:30:16;;;;;;;2.80;1.50;;;41.60;32.90;;;;;;5033410;28;20683;-66
2022/08/04 12:32:51;;;;;;;2.35;1.98;;;41.80;32.20;;;;;;5033599;28;20186;-66
2022/08/04 12:35:22;;;;;;;3.88;1.70;;;41.70;32.50;;;;;;5033436;28;20181;-66
2022/08/04 12:38:01;;;;;;;2.95;2.10;;;41.50;33.10;;;;;;5033448;28;20177;-66
2022/08/04 12:40:45;;;;;;;1.60;1.50;;;41.50;33.80;;;;;;5033449;28;20196;-66
2022/08/04 12:43:17;;;;;;;1.85;1.67;;;41.40;33.60;;;;;;5034252;28;20680;-66
2022/08/04 12:45:51;;;;;;;1.63;1.52;;;41.00;33.00;;;;;;5053199;28;20176;-66
2022/08/04 12:48:18;;;;;;;2.75;1.63;;;41.00;34.00;;;;;;5053110;28;20242;-66
2022/08/04 12:50:53;;;;;;;1.95;1.85;;;41.10;33.90;;;;;;5053156;28;20169;-66
2022/08/04 12:53:22;;;;;;;2.53;1.58;;;41.40;33.80;;;;;;5052842;28;20180;-66
2022/08/04 12:55:50;;;;;;;2.88;1.85;;;41.30;33.50;;;;;;5052203;28;20165;-66
2022/08/04 12:58:20;;;;;;;2.60;1.90;;;41.10;33.30;;;;;;5052669;28;20658;-66
2022/08/04 13:00:55;;;;;;;1.73;1.63;;;41.00;33.40;;;;;;5052894;28;20180;-66
2022/08/04 13:03:26;;;;;;;2.58;1.63;;;41.30;32.90;;;;;;5052778;28;20185;-66
2022/08/04 13:05:54;;;;;;;2.08;1.98;;;41.40;32.90;;;;;;5052732;28;20183;-66
2022/08/04 13:08:20;;;;;;;1.80;1.70;;;41.50;33.20;;;;;;5052723;28;20185;-66
2022/08/04 13:10:49;;;;;;;2.95;1.63;;;41.70;33.40;;;;;;5052720;28;20169;-66
2022/08/04 13:13:18;;;;;;;2.97;2.17;;;41.70;33.20;;;;;;5052606;28;20173;-66
2022/08/04 13:15:58;;;;;;;3.58;1.75;;;41.30;33.50;;;;;;5052640;28;20180;-66
2022/08/04 13:18:26;;;;;;;1.80;1.70;;;40.90;33.80;;;;;;5052642;28;20242;-65
2022/08/04 13:20:52;;;;;;;2.10;2.00;;;40.60;34.10;;;;;;5052299;28;20276;-66
2022/08/04 13:23:18;;;;;;;2.33;2.03;;;40.40;34.90;;;;;;5052306;28;20311;-66
2022/08/04 13:25:46;;;;;;;1.90;1.80;;;40.20;34.70;;;;;;5052523;28;20177;-66
2022/08/04 13:28:16;;;;;;;2.42;1.75;;;40.20;34.80;;;;;;5052365;28;20172;-66
2022/08/04 13:30:45;;;;;;;2.72;2.10;;;40.10;34.20;;;;;;5052377;28;20189;-66
2022/08/04 13:33:11;;;;;;;5.32;1.65;;;40.20;34.40;;;;;;5052406;28;20181;-66
2022/08/04 13:35:44;;;;;;;2.85;1.70;;;40.30;34.20;;;;;;5052330;28;20180;-66